createdAt,value
2019-04-20T00:01:21.682Z,35.35
2019-04-20T00:03:47.321Z,35.40
2019-04-20T00:06:17.246Z,35.42
2019-04-20T00:08:46.233Z,35.48
2019-04-20T00:11:24.835Z,35.51
2019-04-20T00:13:54.954Z,35.52
2019-04-20T00:16:16.837Z,35.54
2019-04-20T00:18:48.845Z,35.55
2019-04-20T00:21:34.448Z,35.59
2019-04-20T00:24:13.376Z,35.60
2019-04-20T00:27:08.605Z,35.65
2019-04-20T00:29:27.732Z,35.72
2019-04-20T00:31:49.104Z,35.79
2019-04-20T00:34:17.340Z,35.86
2019-04-20T00:36:39.235Z,35.97
2019-04-20T00:39:11.276Z,36.01
2019-04-20T00:41:43.827Z,36.03
2019-04-20T00:44:13.269Z,36.04
2019-04-20T00:46:58.729Z,36.06
2019-04-20T00:49:20.663Z,36.06
2019-04-20T00:52:05.271Z,36.04
2019-04-20T00:54:07.887Z,36.06
2019-04-20T00:56:37.092Z,36.07
2019-04-20T00:59:17.204Z,36.07
2019-04-20T01:01:52.129Z,36.09
2019-04-20T01:04:23.839Z,36.16
2019-04-20T01:07:05.545Z,36.18
2019-04-20T01:09:43.938Z,36.23
2019-04-20T01:12:19.277Z,36.29
2019-04-20T01:14:48.469Z,36.33
2019-04-20T01:17:17.896Z,36.39
2019-04-20T01:19:48.866Z,36.44
2019-04-20T01:22:20.109Z,36.47
2019-04-20T01:24:48.315Z,36.51
2019-04-20T01:27:28.350Z,36.57
2019-04-20T01:29:50.960Z,36.63
2019-04-20T01:32:26.706Z,36.67
2019-04-20T01:34:57.636Z,36.71
2019-04-20T01:37:29.788Z,36.78
2019-04-20T01:39:52.059Z,36.83
2019-04-20T01:42:17.253Z,36.90
2019-04-20T01:44:49.167Z,37.00
2019-04-20T01:47:15.350Z,37.00
2019-04-20T01:49:47.726Z,37.03
2019-04-20T01:52:20.102Z,37.09
2019-04-20T01:55:22.978Z,37.17
2019-04-20T01:58:00.447Z,37.21
2019-04-20T02:00:44.990Z,37.21
2019-04-20T02:03:36.963Z,37.26
2019-04-20T02:06:06.377Z,37.28
2019-04-20T02:08:31.423Z,37.33
2019-04-20T02:11:04.349Z,37.38
2019-04-20T02:13:40.241Z,37.42
2019-04-20T02:16:11.425Z,37.48
2019-04-20T02:18:44.307Z,37.53
2019-04-20T02:21:22.073Z,37.57
2019-04-20T02:23:42.094Z,37.65
2019-04-20T02:26:04.983Z,37.69
2019-04-20T02:29:00.704Z,37.75
2019-04-20T02:31:45.685Z,37.78
2019-04-20T02:34:19.861Z,37.82
2019-04-20T02:36:58.825Z,37.90
2019-04-20T02:39:30.612Z,37.99
2019-04-20T02:41:53.365Z,38.03
2019-04-20T02:44:24.157Z,38.12
2019-04-20T02:46:55.842Z,38.23
2019-04-20T02:49:29.718Z,38.29
2019-04-20T02:59:51.238Z,38.58
2019-04-20T03:01:43.471Z,38.63
2019-04-20T03:03:55.987Z,38.69
2019-04-20T03:06:35.080Z,38.75
2019-04-20T03:09:15.222Z,38.78
2019-04-20T03:11:56.753Z,38.84
2019-04-20T03:14:09.556Z,38.88
2019-04-20T03:16:38.556Z,38.91
2019-04-20T03:19:08.065Z,38.93
2019-04-20T03:21:47.896Z,38.97
2019-04-20T03:24:18.891Z,38.98
2019-04-20T03:26:42.014Z,39.00
2019-04-20T03:29:37.055Z,39.03
2019-04-20T03:32:40.239Z,39.06
2019-04-20T03:37:13.154Z,39.09
2019-04-20T03:39:35.989Z,39.11
2019-04-20T03:41:54.899Z,39.13
2019-04-20T03:44:25.569Z,39.18
2019-04-20T03:46:57.486Z,39.19
2019-04-20T03:49:49.032Z,39.22
2019-04-20T03:52:28.786Z,39.24
2019-04-20T03:55:16.466Z,39.27
2019-04-20T03:58:10.085Z,39.29
2019-04-20T04:01:03.839Z,39.28
2019-04-20T04:03:56.671Z,39.31
2019-04-20T04:06:11.765Z,39.33
2019-04-20T04:08:34.460Z,39.38
2019-04-20T04:11:18.877Z,39.45
2019-04-20T04:13:27.037Z,39.52
2019-04-20T04:16:01.183Z,39.55
2019-04-20T04:18:31.868Z,39.59
2019-04-20T04:21:02.922Z,39.65
2019-04-20T04:23:40.439Z,39.70
2019-04-20T04:26:14.994Z,39.73
2019-04-20T04:28:40.998Z,39.76
2019-04-20T04:31:13.390Z,39.82
2019-04-20T04:33:55.949Z,39.86
2019-04-20T04:36:12.997Z,39.93
2019-04-20T04:38:48.701Z,40.00
2019-04-20T04:41:18.183Z,40.07
2019-04-20T04:43:44.327Z,40.12
2019-04-20T04:45:59.562Z,40.17
2019-04-20T04:48:34.452Z,40.21
2019-04-20T04:51:03.207Z,40.23
2019-04-20T04:53:42.975Z,40.28
2019-04-20T04:56:05.742Z,40.33
2019-04-20T04:58:29.699Z,40.34
2019-04-20T05:01:06.551Z,40.37
2019-04-20T05:03:45.312Z,40.38
2019-04-20T05:06:23.168Z,40.40
2019-04-20T05:08:43.771Z,40.43
2019-04-20T05:11:06.914Z,40.47
2019-04-20T05:13:41.903Z,40.52
2019-04-20T05:16:19.212Z,40.57
2019-04-20T05:18:59.267Z,40.60
2019-04-20T05:21:44.596Z,40.65
2019-04-20T05:24:33.813Z,40.70
2019-04-20T05:27:30.075Z,40.72
2019-04-20T05:29:41.355Z,40.78
2019-04-20T05:32:15.924Z,40.84
2019-04-20T05:35:05.100Z,40.92
2019-04-20T05:37:33.282Z,40.95
2019-04-20T05:40:04.412Z,41.01
2019-04-20T05:42:31.243Z,41.07
2019-04-20T05:44:57.247Z,41.13
2019-04-20T05:47:27.039Z,41.17
2019-04-20T05:49:53.790Z,41.25
2019-04-20T05:52:53.907Z,41.31
2019-04-20T05:55:03.021Z,41.40
2019-04-20T05:57:31.938Z,41.49
2019-04-20T06:00:12.666Z,41.51
2019-04-20T06:02:34.761Z,41.54
2019-04-20T06:05:06.959Z,41.49
2019-04-20T06:07:31.166Z,41.47
2019-04-20T06:10:07.801Z,41.51
2019-04-20T06:12:33.137Z,41.52
2019-04-20T06:15:21.094Z,41.48
2019-04-20T06:18:02.390Z,41.47
2019-04-20T06:20:45.358Z,41.49
2019-04-20T06:23:34.254Z,41.48
2019-04-20T06:26:13.429Z,41.48
2019-04-20T06:28:28.377Z,41.44
2019-04-20T06:30:52.639Z,41.43
2019-04-20T06:34:31.084Z,41.39
2019-04-20T06:36:51.175Z,41.38
2019-04-20T06:39:20.016Z,41.28
2019-04-20T06:42:07.755Z,41.26
2019-04-20T06:44:23.163Z,41.22
2019-04-20T06:46:52.473Z,41.12
2019-04-20T06:49:22.876Z,41.02
2019-04-20T06:51:55.386Z,40.90
2019-04-20T06:54:20.034Z,40.77
2019-04-20T06:57:01.723Z,40.65
2019-04-20T06:59:38.733Z,40.56
2019-04-20T07:04:49.999Z,40.40
2019-04-20T07:07:08.611Z,40.29
2019-04-20T07:09:42.114Z,40.19
2019-04-20T07:11:59.576Z,40.04
2019-04-20T07:14:24.203Z,39.97
2019-04-20T07:17:26.938Z,39.86
2019-04-20T07:19:55.903Z,39.69
2019-04-20T07:22:39.403Z,39.50
2019-04-20T07:25:01.177Z,39.35
2019-04-20T07:27:36.584Z,39.27
2019-04-20T07:30:03.949Z,39.16
2019-04-20T07:32:38.929Z,39.05
2019-04-20T07:35:01.353Z,38.95
2019-04-20T07:38:04.640Z,38.83
2019-04-20T07:40:13.535Z,38.72
2019-04-20T07:42:43.695Z,38.60
2019-04-20T07:45:07.463Z,38.44
2019-04-20T07:47:44.086Z,38.30
2019-04-20T07:50:04.835Z,38.10
2019-04-20T07:52:24.364Z,37.83
2019-04-20T07:55:32.001Z,37.67
2019-04-20T07:57:34.034Z,37.54
2019-04-20T08:00:04.864Z,37.35
2019-04-20T08:02:58.654Z,37.18
2019-04-20T08:05:36.723Z,37.03
2019-04-20T08:08:08.318Z,36.81
2019-04-20T08:10:47.391Z,36.61
2019-04-20T08:13:21.484Z,36.43
2019-04-20T08:18:16.085Z,35.97
2019-04-20T08:20:46.275Z,35.68
2019-04-20T08:23:12.986Z,35.44
2019-04-20T08:25:36.152Z,35.28
2019-04-20T08:28:18.860Z,35.20
2019-04-20T08:31:25.257Z,35.14
2019-04-20T08:34:12.161Z,35.00
2019-04-20T08:36:33.217Z,34.73
2019-04-20T08:41:25.045Z,34.12
2019-04-20T08:44:18.649Z,33.95
2019-04-20T08:46:38.351Z,33.80
2019-04-20T08:49:05.048Z,33.60
2019-04-20T08:51:46.305Z,33.39
2019-04-20T08:54:02.349Z,33.11
2019-04-20T08:56:27.269Z,32.92
2019-04-20T08:58:43.448Z,32.80
2019-04-20T09:01:18.438Z,32.64
2019-04-20T09:03:53.133Z,32.37
2019-04-20T09:06:26.358Z,32.17
2019-04-20T09:08:50.339Z,32.09
2019-04-20T09:11:31.156Z,31.96
2019-04-20T09:13:47.710Z,31.83
2019-04-20T09:16:13.035Z,31.68
2019-04-20T09:18:51.472Z,31.49
2019-04-20T09:21:25.288Z,31.40
2019-04-20T09:24:04.545Z,31.22
2019-04-20T09:26:34.277Z,31.07
2019-04-20T09:29:02.825Z,30.92
2019-04-20T09:31:44.801Z,30.75
2019-04-20T09:34:37.028Z,30.61
2019-04-20T09:37:21.961Z,30.57
2019-04-20T09:40:06.180Z,30.40
2019-04-20T09:42:30.360Z,30.21
2019-04-20T09:45:02.490Z,29.94
2019-04-20T09:47:36.813Z,29.80
2019-04-20T09:50:18.732Z,29.60
2019-04-20T09:52:46.513Z,29.39
2019-04-20T09:55:10.764Z,29.33
2019-04-20T09:57:46.692Z,29.22
2019-04-20T10:00:16.770Z,29.20
2019-04-20T10:02:32.558Z,29.19
2019-04-20T10:04:59.643Z,29.12
2019-04-20T10:07:32.586Z,29.08
2019-04-20T10:09:58.018Z,28.86
2019-04-20T10:12:26.113Z,28.65
2019-04-20T10:14:57.625Z,28.48
2019-04-20T10:17:27.055Z,28.16
2019-04-20T10:19:54.066Z,27.91
2019-04-20T10:22:22.569Z,27.79
2019-04-20T10:24:52.199Z,27.66
2019-04-20T10:27:20.999Z,27.48
2019-04-20T10:29:49.342Z,27.32
2019-04-20T10:32:17.998Z,27.10
2019-04-20T10:34:46.494Z,26.89
2019-04-20T10:37:24.174Z,26.83
2019-04-20T10:39:52.423Z,26.88
2019-04-20T10:42:20.570Z,26.82
2019-04-20T10:44:48.558Z,26.73
2019-04-20T10:47:16.887Z,26.62
2019-04-20T10:49:45.091Z,26.46
2019-04-20T10:52:13.744Z,26.44
2019-04-20T10:54:42.699Z,26.34
2019-04-20T10:57:10.800Z,26.21
2019-04-20T10:59:39.452Z,26.17
2019-04-20T11:02:09.788Z,26.07
2019-04-20T11:04:38.786Z,25.98
2019-04-20T11:07:08.209Z,25.95
2019-04-20T11:09:36.659Z,25.68
2019-04-20T11:12:06.268Z,25.48
2019-04-20T11:14:37.245Z,25.33
2019-04-20T11:17:04.499Z,25.06
2019-04-20T11:19:33.604Z,24.85
2019-04-20T11:22:02.229Z,24.64
2019-04-20T11:24:30.315Z,24.50
2019-04-20T11:26:58.626Z,24.38
2019-04-20T11:29:26.658Z,24.26
2019-04-20T11:31:56.175Z,24.13
2019-04-20T11:34:28.658Z,23.92
2019-04-20T11:36:55.045Z,23.69
2019-04-20T11:39:23.142Z,23.54
2019-04-20T11:41:51.746Z,23.42
2019-04-20T11:44:20.080Z,23.25
2019-04-20T11:46:48.392Z,23.05
2019-04-20T11:49:17.469Z,22.88
2019-04-20T11:51:45.926Z,22.77
2019-04-20T11:54:14.592Z,22.59
2019-04-20T11:56:46.840Z,22.43
2019-04-20T11:59:12.773Z,22.41
2019-04-20T12:02:04.100Z,22.28
2019-04-20T12:04:44.182Z,22.20
2019-04-20T12:07:08.748Z,22.13
2019-04-20T12:09:37.704Z,21.97
2019-04-20T12:12:15.530Z,21.95
2019-04-20T12:14:36.759Z,21.98
2019-04-20T12:17:05.894Z,21.87
2019-04-20T12:19:36.213Z,21.68
2019-04-20T12:22:04.000Z,21.55
2019-04-20T12:24:33.214Z,21.43
2019-04-20T12:27:02.661Z,21.31
2019-04-20T12:29:32.087Z,21.17
2019-04-20T12:32:02.962Z,21.15
2019-04-20T12:34:30.731Z,21.01
2019-04-20T12:36:58.806Z,20.99
2019-04-20T12:39:27.068Z,20.96
2019-04-20T12:41:58.851Z,20.84
2019-04-20T12:44:25.788Z,20.77
2019-04-20T12:46:54.023Z,20.63
2019-04-20T12:49:23.459Z,20.52
2019-04-20T12:51:57.079Z,20.50
2019-04-20T12:54:22.780Z,20.47
2019-04-20T12:56:50.893Z,20.38
2019-04-20T12:59:18.957Z,20.32
2019-04-20T13:01:47.152Z,20.21
2019-04-20T13:04:16.462Z,20.15
2019-04-20T13:06:45.146Z,20.10
2019-04-20T13:09:14.474Z,20.07
2019-04-20T13:12:11.694Z,20.01
2019-04-20T13:15:42.468Z,20.04
2019-04-20T13:18:11.581Z,20.11
2019-04-20T13:20:39.802Z,20.13
2019-04-20T13:23:09.122Z,20.04
2019-04-20T13:25:39.185Z,19.96
2019-04-20T13:28:07.422Z,19.98
2019-04-20T13:30:35.592Z,19.93
2019-04-20T13:33:03.991Z,19.89
2019-04-20T13:35:34.277Z,19.95
2019-04-20T13:38:02.544Z,19.97
2019-04-20T13:40:31.214Z,19.91
2019-04-20T13:42:59.594Z,19.77
2019-04-20T13:45:28.838Z,19.69
2019-04-20T13:47:57.078Z,19.71
2019-04-20T13:50:26.258Z,19.72
2019-04-20T13:52:54.474Z,19.67
2019-04-20T13:55:24.949Z,19.70
2019-04-20T13:58:04.227Z,19.69
2019-04-20T14:00:58.961Z,19.70
2019-04-20T14:03:30.018Z,19.63
2019-04-20T14:05:58.480Z,19.64
2019-04-20T14:08:27.385Z,19.65
2019-04-20T14:10:55.752Z,19.60
2019-04-20T14:13:29.292Z,19.52
2019-04-20T14:15:55.449Z,19.45
2019-04-20T14:18:24.942Z,19.44
2019-04-20T14:20:54.105Z,19.46
2019-04-20T14:23:23.217Z,19.49
2019-04-20T14:25:52.155Z,19.57
2019-04-20T14:28:20.952Z,19.51
2019-04-20T14:30:49.933Z,19.44
2019-04-20T14:33:18.937Z,19.31
2019-04-20T14:35:48.353Z,19.13
2019-04-20T14:38:17.641Z,19.11
2019-04-20T14:40:46.371Z,19.10
2019-04-20T14:43:15.111Z,19.10
2019-04-20T14:45:44.769Z,19.10
2019-04-20T14:48:13.051Z,19.08
2019-04-20T14:50:41.416Z,19.06
2019-04-20T14:53:09.598Z,19.13
2019-04-20T14:55:37.705Z,19.16
2019-04-20T14:58:26.956Z,19.20
2019-04-20T15:01:00.578Z,19.29
2019-04-20T15:03:36.893Z,19.33
2019-04-20T15:06:05.410Z,19.34
2019-04-20T15:08:34.861Z,19.37
2019-04-20T15:11:03.037Z,19.31
2019-04-20T15:13:31.034Z,19.27
2019-04-20T15:15:59.179Z,19.35
2019-04-20T15:18:31.739Z,19.50
2019-04-20T15:21:01.654Z,19.60
2019-04-20T15:23:29.838Z,19.69
2019-04-20T15:25:58.222Z,19.80
2019-04-20T15:28:26.402Z,19.77
2019-04-20T15:30:54.491Z,19.75
2019-04-20T15:33:23.489Z,19.75
2019-04-20T15:35:52.687Z,19.78
2019-04-20T15:38:21.094Z,19.82
2019-04-20T15:40:49.402Z,19.84
2019-04-20T15:43:20.903Z,19.91
2019-04-20T15:45:47.591Z,20.02
2019-04-20T15:48:16.296Z,20.09
2019-04-20T15:50:45.670Z,20.17
2019-04-20T15:53:13.814Z,20.21
2019-04-20T15:55:43.870Z,20.24
2019-04-20T15:58:12.368Z,20.25
2019-04-20T16:00:40.613Z,20.26
2019-04-20T16:03:12.904Z,20.28
2019-04-20T16:06:07.462Z,20.33
2019-04-20T16:08:38.721Z,20.39
2019-04-20T16:11:07.330Z,20.39
2019-04-20T16:13:39.575Z,20.38
2019-04-20T16:16:05.819Z,20.40
2019-04-20T16:18:34.944Z,20.42
2019-04-20T16:21:07.885Z,20.40
2019-04-20T16:23:58.934Z,20.41
2019-04-20T16:26:35.729Z,20.44
2019-04-20T16:29:05.835Z,20.48
2019-04-20T16:31:34.015Z,20.50
2019-04-20T16:34:03.226Z,20.54
2019-04-20T16:36:32.467Z,20.59
2019-04-20T16:39:01.696Z,20.60
2019-04-20T16:41:32.637Z,20.62
2019-04-20T16:44:00.789Z,20.62
2019-04-20T16:46:30.049Z,20.59
2019-04-20T16:48:58.982Z,20.58
2019-04-20T16:51:27.201Z,20.57
2019-04-20T16:53:56.160Z,20.59
2019-04-20T16:56:24.565Z,20.76
2019-04-20T16:58:54.645Z,20.83
2019-04-20T17:01:23.467Z,20.81
2019-04-20T17:04:01.058Z,20.81
2019-04-20T17:06:22.323Z,20.85
2019-04-20T17:08:51.335Z,20.85
2019-04-20T17:11:19.483Z,20.83
2019-04-20T17:13:50.046Z,20.83
2019-04-20T17:16:17.622Z,20.83
2019-04-20T17:18:49.969Z,20.88
2019-04-20T17:21:22.924Z,20.92
2019-04-20T17:23:49.144Z,20.91
2019-04-20T17:26:29.460Z,20.94
2019-04-20T17:29:19.979Z,20.95
2019-04-20T17:32:13.714Z,20.94
2019-04-20T17:34:58.185Z,21.00
2019-04-20T17:37:12.880Z,20.99
2019-04-20T17:40:05.297Z,20.93
2019-04-20T17:42:23.749Z,20.94
2019-04-20T17:44:55.581Z,20.93
2019-04-20T17:47:31.323Z,20.93
2019-04-20T17:50:05.243Z,20.94
2019-04-20T17:52:37.323Z,20.95
2019-04-20T17:54:55.843Z,20.98
2019-04-20T17:57:25.381Z,20.98
2019-04-20T18:00:07.052Z,21.01
2019-04-20T18:03:00.642Z,21.02
2019-04-20T18:05:39.491Z,21.04
2019-04-20T18:08:10.279Z,21.08
2019-04-20T18:10:36.743Z,21.12
2019-04-20T18:12:53.056Z,21.15
2019-04-20T18:15:36.845Z,21.17
2019-04-20T18:18:24.520Z,21.20
2019-04-20T18:20:59.006Z,21.23
2019-04-20T18:23:33.736Z,21.27
2019-04-20T18:26:18.629Z,21.27
2019-04-20T18:28:51.600Z,21.29
2019-04-20T18:31:15.492Z,21.30
2019-04-20T18:33:44.493Z,21.33
2019-04-20T18:36:20.566Z,21.33
2019-04-20T18:38:52.985Z,21.33
2019-04-20T18:41:25.687Z,21.35
2019-04-20T18:43:48.212Z,21.38
2019-04-20T18:46:29.336Z,21.42
2019-04-20T18:49:03.285Z,21.44
2019-04-20T18:51:12.254Z,21.48
2019-04-20T18:53:43.334Z,21.50
2019-04-20T18:56:10.269Z,21.50
2019-04-20T18:58:38.334Z,21.51
2019-04-20T19:01:07.542Z,21.56
2019-04-20T19:03:40.654Z,21.59
2019-04-20T19:06:07.210Z,21.63
2019-04-20T19:08:40.504Z,21.65
2019-04-20T19:11:09.755Z,21.68
2019-04-20T19:13:44.608Z,21.73
2019-04-20T19:16:50.883Z,21.77
2019-04-20T19:19:37.507Z,21.79
2019-04-20T19:21:58.461Z,21.84
2019-04-20T19:24:29.698Z,21.88
2019-04-20T19:27:02.949Z,21.90
2019-04-20T19:29:33.011Z,21.96
2019-04-20T19:32:15.851Z,21.97
2019-04-20T19:34:43.197Z,21.99
2019-04-20T19:37:06.199Z,22.03
2019-04-20T19:39:43.691Z,22.11
2019-04-20T19:42:11.739Z,22.15
2019-04-20T19:44:49.540Z,22.23
2019-04-20T19:47:15.678Z,22.28
2019-04-20T19:49:37.082Z,22.35
2019-04-20T19:52:27.161Z,22.39
2019-04-20T19:54:46.503Z,22.43
2019-04-20T19:57:16.148Z,22.50
2019-04-20T19:59:35.438Z,22.61
2019-04-20T20:01:58.015Z,22.68
2019-04-20T20:04:26.054Z,22.74
2019-04-20T20:07:01.470Z,22.84
2019-04-20T20:09:24.170Z,23.00
2019-04-20T20:11:56.129Z,23.16
2019-04-20T20:14:30.619Z,23.27
2019-04-20T20:17:08.681Z,23.36
2019-04-20T20:19:37.191Z,23.48
2019-04-20T20:22:06.717Z,23.58
2019-04-20T20:24:23.228Z,23.69
2019-04-20T20:26:59.865Z,23.83
2019-04-20T20:29:31.566Z,23.99
2019-04-20T20:32:08.482Z,24.06
2019-04-20T20:34:28.724Z,24.19
2019-04-20T20:36:54.584Z,24.21
2019-04-20T20:39:27.763Z,24.20
2019-04-20T20:42:04.978Z,24.15
2019-04-20T20:44:31.843Z,24.11
2019-04-20T20:47:03.115Z,24.09
2019-04-20T20:49:40.184Z,24.08
2019-04-20T20:52:12.040Z,24.08
2019-04-20T20:54:33.579Z,24.10
2019-04-20T20:57:02.830Z,24.12
2019-04-20T20:59:34.771Z,24.14
2019-04-20T21:02:00.974Z,24.23
2019-04-20T21:04:21.758Z,24.33
2019-04-20T21:06:50.881Z,24.39
2019-04-20T21:09:20.651Z,24.39
2019-04-20T21:11:51.129Z,24.35
2019-04-20T21:14:22.171Z,24.35
2019-04-20T21:17:00.303Z,24.37
2019-04-20T21:19:34.287Z,24.39
2019-04-20T21:21:55.920Z,24.48
2019-04-20T21:24:30.300Z,24.58
2019-04-20T21:27:00.611Z,24.65
2019-04-20T21:29:35.565Z,24.79
2019-04-20T21:32:05.051Z,24.92
2019-04-20T21:34:29.118Z,25.02
2019-04-20T21:37:07.021Z,25.11
2019-04-20T21:39:38.283Z,25.21
2019-04-20T21:42:04.373Z,25.28
2019-04-20T21:44:34.798Z,25.29
2019-04-20T21:47:01.266Z,25.38
2019-04-20T21:49:42.307Z,25.47
2019-04-20T21:52:06.734Z,25.60
2019-04-20T21:54:32.009Z,25.71
2019-04-20T21:57:03.853Z,25.82
2019-04-20T21:59:36.268Z,25.96
2019-04-20T22:02:09.854Z,26.07
2019-04-20T22:04:31.298Z,26.20
2019-04-20T22:07:00.487Z,26.29
2019-04-20T22:09:34.412Z,26.35
2019-04-20T22:12:00.040Z,26.45
2019-04-20T22:14:32.286Z,26.53
2019-04-20T22:17:01.804Z,26.60
2019-04-20T22:19:41.161Z,26.70
2019-04-20T22:22:05.515Z,26.77
2019-04-20T22:24:45.466Z,26.85
2019-04-20T22:27:09.933Z,26.93
2019-04-20T22:29:32.268Z,26.99
2019-04-20T22:32:08.899Z,27.07
2019-04-20T22:34:33.690Z,27.15
2019-04-20T22:37:02.374Z,27.23
2019-04-20T22:39:39.678Z,27.31
2019-04-20T22:42:08.942Z,27.35
2019-04-20T22:44:36.429Z,27.40
2019-04-20T22:47:12.514Z,27.45
2019-04-20T22:49:48.209Z,27.52
2019-04-20T22:52:23.337Z,27.61
2019-04-20T22:54:49.396Z,27.68
2019-04-20T22:57:19.397Z,27.72
2019-04-20T22:59:44.708Z,27.79
2019-04-20T23:02:06.544Z,27.89
2019-04-20T23:04:35.077Z,27.96
2019-04-20T23:07:03.237Z,28.04
2019-04-20T23:09:34.211Z,28.14
2019-04-20T23:12:09.194Z,28.22
2019-04-20T23:14:32.141Z,28.25
2019-04-20T23:17:02.132Z,28.36
2019-04-20T23:19:38.193Z,28.39
2019-04-20T23:22:04.820Z,28.50
2019-04-20T23:24:31.060Z,28.54
2019-04-20T23:26:59.541Z,28.63
2019-04-20T23:29:32.669Z,28.71
2019-04-20T23:32:03.009Z,28.79
2019-04-20T23:34:31.011Z,28.87
2019-04-20T23:36:58.870Z,28.93
2019-04-20T23:39:34.248Z,28.98
2019-04-20T23:42:01.612Z,29.09
2019-04-20T23:44:45.917Z,29.17
2019-04-20T23:47:25.524Z,29.26
2019-04-20T23:50:12.292Z,29.28
2019-04-20T23:52:49.692Z,29.36
2019-04-20T23:55:04.338Z,29.46
2019-04-20T23:57:29.382Z,29.54
2019-04-20T23:59:58.175Z,29.65
